createdAt,value
2022-10-06T00:02:09.002Z,0.75
2022-10-06T00:04:35.447Z,0.60
2022-10-06T00:07:01.877Z,0.60
2022-10-06T00:09:28.327Z,0.60
2022-10-06T00:11:54.736Z,1.00
2022-10-06T00:14:21.167Z,0.70
2022-10-06T00:16:47.602Z,0.63
2022-10-06T00:19:14.037Z,0.80
2022-10-06T00:21:40.476Z,0.47
2022-10-06T00:24:06.918Z,0.80
2022-10-06T00:26:33.336Z,0.50
2022-10-06T00:28:59.759Z,0.50
2022-10-06T00:31:26.239Z,0.60
2022-10-06T00:33:52.667Z,1.10
2022-10-06T00:36:19.080Z,0.98
2022-10-06T00:38:45.500Z,0.82
2022-10-06T00:41:11.928Z,0.50
2022-10-06T00:43:38.360Z,0.43
2022-10-06T00:46:04.834Z,0.68
2022-10-06T00:48:31.675Z,0.77
2022-10-06T00:50:58.333Z,0.68
2022-10-06T00:53:24.778Z,0.82
2022-10-06T00:55:51.195Z,1.25
2022-10-06T00:58:17.631Z,0.68
2022-10-06T01:00:44.061Z,0.73
2022-10-06T01:03:10.496Z,0.80
2022-10-06T01:05:36.942Z,0.70
2022-10-06T01:08:03.382Z,1.10
2022-10-06T01:10:29.816Z,0.40
2022-10-06T01:12:56.248Z,0.68
2022-10-06T01:15:22.681Z,1.30
2022-10-06T01:17:49.117Z,1.35
2022-10-06T01:20:15.540Z,0.80
2022-10-06T01:22:41.970Z,1.20
2022-10-06T01:25:08.417Z,1.08
2022-10-06T01:27:34.827Z,0.82
2022-10-06T01:30:01.268Z,0.98
2022-10-06T01:32:27.695Z,1.50
2022-10-06T01:34:54.137Z,0.80
2022-10-06T01:37:20.575Z,1.10
2022-10-06T01:39:47.012Z,0.98
2022-10-06T01:42:13.436Z,0.90
2022-10-06T01:44:39.878Z,1.00
2022-10-06T01:47:06.301Z,1.40
2022-10-06T01:49:32.727Z,1.42
2022-10-06T01:51:59.161Z,1.10
2022-10-06T01:54:25.588Z,1.15
2022-10-06T01:56:52.013Z,1.08
2022-10-06T01:59:18.435Z,0.70
2022-10-06T02:01:44.873Z,0.88
2022-10-06T02:04:11.422Z,0.52
2022-10-06T02:06:37.940Z,0.50
2022-10-06T02:09:04.390Z,0.55
2022-10-06T02:11:30.841Z,0.90
2022-10-06T02:13:57.273Z,0.55
2022-10-06T02:16:23.811Z,0.80
2022-10-06T02:18:50.316Z,1.00
2022-10-06T02:21:16.756Z,0.95
2022-10-06T02:23:43.188Z,0.60
2022-10-06T02:26:09.625Z,0.57
2022-10-06T02:28:36.138Z,0.77
2022-10-06T02:31:02.680Z,1.25
2022-10-06T02:33:29.133Z,1.20
2022-10-06T02:35:55.581Z,1.15
2022-10-06T02:38:22.017Z,1.05
2022-10-06T02:40:48.460Z,0.68
2022-10-06T02:43:14.903Z,0.52
2022-10-06T02:45:41.346Z,0.65
2022-10-06T02:48:07.769Z,0.47
2022-10-06T02:50:34.210Z,0.90
2022-10-06T02:53:00.623Z,0.82
2022-10-06T02:55:27.064Z,0.70
2022-10-06T02:57:53.482Z,0.60
2022-10-06T03:00:19.915Z,0.63
2022-10-06T03:02:46.470Z,0.47
2022-10-06T03:05:12.955Z,1.40
2022-10-06T03:07:39.394Z,0.80
2022-10-06T03:10:05.830Z,0.63
2022-10-06T03:12:32.264Z,0.32
2022-10-06T03:14:58.710Z,0.63
2022-10-06T03:17:25.133Z,0.57
2022-10-06T03:19:51.577Z,0.60
2022-10-06T03:22:17.993Z,0.52
2022-10-06T03:24:44.421Z,1.10
2022-10-06T03:27:10.857Z,1.00
2022-10-06T03:29:37.279Z,0.80
2022-10-06T03:32:03.720Z,0.52
2022-10-06T03:34:30.164Z,0.60
2022-10-06T03:36:56.833Z,1.60
2022-10-06T03:39:23.260Z,0.60
2022-10-06T03:41:49.705Z,0.70
2022-10-06T03:44:16.136Z,0.75
2022-10-06T03:46:42.661Z,0.80
2022-10-06T03:49:09.124Z,0.63
2022-10-06T03:51:35.560Z,0.52
2022-10-06T03:54:02.001Z,0.60
2022-10-06T03:56:28.438Z,0.40
2022-10-06T03:58:54.862Z,0.40
2022-10-06T04:01:25.940Z,0.50
2022-10-06T04:03:52.989Z,0.50
2022-10-06T04:06:19.427Z,0.50
2022-10-06T04:08:45.863Z,0.70
2022-10-06T04:11:12.305Z,0.60
2022-10-06T04:13:38.733Z,0.50
2022-10-06T04:16:05.244Z,0.50
2022-10-06T04:18:32.085Z,0.60
2022-10-06T04:20:58.848Z,0.32
2022-10-06T04:23:25.260Z,0.30
2022-10-06T04:25:55.814Z,0.70
2022-10-06T04:28:22.612Z,0.55
2022-10-06T04:30:49.109Z,0.40
2022-10-06T04:33:15.520Z,0.63
2022-10-06T04:35:41.956Z,0.50
2022-10-06T04:38:08.380Z,0.35
2022-10-06T04:40:34.829Z,0.50
2022-10-06T04:43:01.260Z,0.50
2022-10-06T04:45:27.729Z,0.57
2022-10-06T04:47:54.146Z,0.50
2022-10-06T04:50:20.577Z,0.30
2022-10-06T04:52:47.005Z,0.50
2022-10-06T04:55:13.427Z,0.63
2022-10-06T04:57:39.859Z,0.73
2022-10-06T05:00:11.140Z,0.57
2022-10-06T05:02:40.496Z,0.82
2022-10-06T05:05:06.983Z,0.73
2022-10-06T05:07:33.407Z,0.40
2022-10-06T05:09:59.823Z,0.63
2022-10-06T05:12:26.244Z,0.60
2022-10-06T05:14:52.693Z,0.40
2022-10-06T05:17:19.142Z,0.63
2022-10-06T05:19:45.573Z,0.30
2022-10-06T05:22:12.009Z,0.88
2022-10-06T05:24:38.422Z,1.10
2022-10-06T05:27:04.875Z,1.20
2022-10-06T05:29:31.299Z,0.60
2022-10-06T05:31:57.792Z,0.63
2022-10-06T05:34:24.282Z,1.60
2022-10-06T05:36:50.714Z,0.80
2022-10-06T05:39:17.155Z,0.70
2022-10-06T05:41:43.585Z,0.55
2022-10-06T05:44:10.011Z,0.85
2022-10-06T05:46:36.444Z,0.68
2022-10-06T05:49:02.868Z,0.88
2022-10-06T05:51:30.936Z,0.60
2022-10-06T05:53:57.864Z,0.80
2022-10-06T05:56:24.299Z,0.47
2022-10-06T05:58:50.735Z,0.70
2022-10-06T06:01:17.183Z,0.60
2022-10-06T06:03:43.630Z,0.52
2022-10-06T06:06:10.058Z,0.60
2022-10-06T06:08:36.492Z,0.60
2022-10-06T06:11:02.913Z,0.65
2022-10-06T06:13:29.358Z,0.47
2022-10-06T06:15:55.790Z,0.55
2022-10-06T06:18:22.224Z,1.17
2022-10-06T06:20:48.654Z,0.98
2022-10-06T06:23:15.094Z,0.57
2022-10-06T06:25:41.520Z,0.52
2022-10-06T06:28:08.002Z,0.60
2022-10-06T06:30:34.506Z,1.05
2022-10-06T06:33:00.941Z,0.60
2022-10-06T06:35:27.376Z,0.68
2022-10-06T06:37:53.834Z,0.45
2022-10-06T06:40:20.252Z,0.60
2022-10-06T06:42:50.383Z,0.60
2022-10-06T06:45:20.033Z,0.57
2022-10-06T06:47:46.482Z,0.40
2022-10-06T06:50:12.907Z,0.80
2022-10-06T06:52:39.351Z,0.40
2022-10-06T06:55:05.768Z,0.50
2022-10-06T06:57:32.208Z,0.82
2022-10-06T06:59:58.620Z,0.50
2022-10-06T07:02:25.102Z,0.40
2022-10-06T07:04:51.555Z,0.45
2022-10-06T07:07:17.979Z,0.40
2022-10-06T07:09:44.423Z,0.43
2022-10-06T07:12:10.865Z,0.77
2022-10-06T07:14:37.305Z,1.15
2022-10-06T07:17:03.868Z,0.50
2022-10-06T07:19:30.320Z,0.60
2022-10-06T07:21:56.737Z,0.90
2022-10-06T07:24:23.209Z,0.55
2022-10-06T07:26:49.637Z,0.40
2022-10-06T07:29:16.066Z,0.93
2022-10-06T07:31:42.524Z,0.90
2022-10-06T07:34:08.978Z,0.90
2022-10-06T07:36:35.400Z,0.60
2022-10-06T07:39:01.825Z,1.05
2022-10-06T07:41:28.265Z,1.15
2022-10-06T07:43:54.707Z,0.50
2022-10-06T07:46:21.196Z,0.70
2022-10-06T07:48:47.625Z,0.77
2022-10-06T07:51:14.057Z,0.90
2022-10-06T07:53:40.480Z,0.70
2022-10-06T07:56:06.933Z,0.45
2022-10-06T07:58:33.375Z,0.60
2022-10-06T08:00:59.828Z,0.80
2022-10-06T08:03:26.315Z,0.70
2022-10-06T08:05:52.838Z,0.82
2022-10-06T08:08:19.263Z,0.82
2022-10-06T08:10:45.706Z,0.90
2022-10-06T08:13:12.129Z,0.50
2022-10-06T08:15:38.662Z,0.93
2022-10-06T08:18:16.449Z,1.05
2022-10-06T08:20:51.796Z,1.30
2022-10-06T08:23:18.227Z,1.30
2022-10-06T08:25:44.664Z,1.10
2022-10-06T08:28:11.182Z,1.73
2022-10-06T08:30:37.874Z,1.45
2022-10-06T08:33:04.321Z,1.40
2022-10-06T08:35:30.745Z,1.00
2022-10-06T08:37:57.165Z,1.23
2022-10-06T08:40:23.589Z,1.25
2022-10-06T08:42:50.009Z,1.05
2022-10-06T08:45:16.435Z,1.08
2022-10-06T08:47:42.853Z,0.85
2022-10-06T08:50:09.297Z,0.80
2022-10-06T08:52:35.739Z,0.93
2022-10-06T08:55:02.147Z,1.00
2022-10-06T08:57:28.595Z,1.50
2022-10-06T08:59:55.252Z,1.10
2022-10-06T09:02:21.953Z,0.95
2022-10-06T09:04:48.487Z,1.60
2022-10-06T09:07:14.931Z,1.25
2022-10-06T09:09:41.360Z,1.67
2022-10-06T09:12:07.792Z,0.88
2022-10-06T09:14:34.221Z,1.40
2022-10-06T09:17:00.703Z,1.55
2022-10-06T09:19:31.319Z,1.45
2022-10-06T09:21:59.972Z,1.48
2022-10-06T09:24:26.485Z,1.40
2022-10-06T09:26:52.929Z,1.13
2022-10-06T09:29:19.356Z,1.65
2022-10-06T09:31:45.808Z,1.00
2022-10-06T09:34:12.271Z,1.98
2022-10-06T09:36:38.690Z,0.90
2022-10-06T09:39:05.218Z,1.30
2022-10-06T09:41:31.673Z,1.52
2022-10-06T09:43:58.114Z,1.17
2022-10-06T09:46:24.524Z,1.52
2022-10-06T09:48:50.957Z,1.30
2022-10-06T09:51:17.390Z,1.73
2022-10-06T09:53:43.825Z,1.60
2022-10-06T09:56:10.245Z,2.20
2022-10-06T09:58:36.661Z,1.23
2022-10-06T10:01:03.134Z,1.13
2022-10-06T10:03:29.600Z,1.30
2022-10-06T10:05:56.034Z,1.38
2022-10-06T10:08:22.547Z,0.93
2022-10-06T10:10:49.018Z,1.33
2022-10-06T10:13:15.433Z,1.50
2022-10-06T10:15:41.914Z,0.98
2022-10-06T10:18:08.401Z,1.30
2022-10-06T10:20:34.863Z,1.40
2022-10-06T10:23:01.284Z,1.83
2022-10-06T10:25:27.704Z,1.70
2022-10-06T10:27:54.154Z,1.02
2022-10-06T10:30:20.581Z,1.10
2022-10-06T10:32:47.024Z,1.15
2022-10-06T10:35:13.462Z,1.02
2022-10-06T10:37:39.893Z,0.85
2022-10-06T10:40:06.338Z,1.10
2022-10-06T10:42:32.799Z,0.45
2022-10-06T10:44:59.393Z,0.93
2022-10-06T10:47:26.033Z,1.25
2022-10-06T10:49:52.482Z,0.77
2022-10-06T10:52:18.914Z,1.02
2022-10-06T10:54:45.381Z,0.80
2022-10-06T10:57:11.809Z,1.10
2022-10-06T10:59:38.253Z,1.00
2022-10-06T11:02:04.709Z,1.20
2022-10-06T11:04:31.171Z,1.40
2022-10-06T11:06:57.585Z,1.50
2022-10-06T11:09:24.022Z,1.15
2022-10-06T11:11:52.444Z,1.30
2022-10-06T11:14:18.990Z,1.00
2022-10-06T11:16:45.400Z,0.90
2022-10-06T11:19:11.842Z,1.17
2022-10-06T11:21:38.286Z,1.08
2022-10-06T11:24:04.709Z,1.30
2022-10-06T11:26:31.142Z,1.10
2022-10-06T11:28:57.566Z,0.98
2022-10-06T11:31:24.037Z,1.10
2022-10-06T11:33:50.506Z,0.90
2022-10-06T11:36:16.954Z,0.80
2022-10-06T11:38:43.390Z,0.60
2022-10-06T11:41:10.234Z,1.00
2022-10-06T11:43:36.857Z,0.95
2022-10-06T11:46:03.416Z,1.02
2022-10-06T11:48:29.923Z,0.75
2022-10-06T11:50:56.353Z,0.90
2022-10-06T11:53:22.796Z,0.90
2022-10-06T11:55:49.228Z,1.17
2022-10-06T11:58:41.854Z,0.85
2022-10-06T12:01:02.125Z,1.30
2022-10-06T12:03:28.633Z,1.23
2022-10-06T12:05:56.560Z,1.25
2022-10-06T12:08:23.380Z,0.80
2022-10-06T12:10:49.803Z,0.80
2022-10-06T12:13:51.323Z,0.63
2022-10-06T12:18:49.151Z,1.08
2022-10-06T12:21:15.734Z,0.50
2022-10-06T12:23:42.181Z,0.77
2022-10-06T12:26:08.614Z,0.63
2022-10-06T12:28:35.064Z,0.80
2022-10-06T12:31:01.618Z,0.95
2022-10-06T12:33:28.093Z,0.57
2022-10-06T12:35:54.530Z,0.63
2022-10-06T12:38:20.968Z,0.75
2022-10-06T12:40:47.413Z,0.40
2022-10-06T12:43:13.829Z,0.77
2022-10-06T12:45:45.660Z,0.50
2022-10-06T12:48:12.591Z,0.88
2022-10-06T12:50:39.001Z,0.90
2022-10-06T12:53:05.440Z,0.80
2022-10-06T12:55:32.030Z,1.17
2022-10-06T12:57:58.479Z,0.63
2022-10-06T13:02:52.261Z,0.80
2022-10-06T13:05:18.688Z,1.05
2022-10-06T13:07:45.122Z,0.95
2022-10-06T13:10:11.552Z,1.00
2022-10-06T13:12:37.992Z,0.80
2022-10-06T13:15:04.421Z,0.50
2022-10-06T13:17:30.877Z,0.85
2022-10-06T13:19:57.605Z,1.27
2022-10-06T13:22:24.314Z,0.88
2022-10-06T13:24:50.767Z,0.63
2022-10-06T13:27:17.204Z,0.63
2022-10-06T13:29:43.634Z,0.70
2022-10-06T13:32:10.072Z,0.73
2022-10-06T13:34:36.495Z,0.65
2022-10-06T13:37:03.016Z,0.52
2022-10-06T13:39:29.493Z,0.80
2022-10-06T13:41:55.946Z,0.82
2022-10-06T13:44:22.380Z,1.30
2022-10-06T13:46:48.788Z,0.68
2022-10-06T13:49:15.216Z,0.63
2022-10-06T13:51:41.658Z,0.45
2022-10-06T13:54:08.083Z,0.40
2022-10-06T13:56:34.498Z,0.50
2022-10-06T13:59:00.937Z,0.80
2022-10-06T14:01:27.426Z,0.73
2022-10-06T14:03:53.873Z,0.60
2022-10-06T14:06:20.283Z,0.60
2022-10-06T14:08:46.715Z,0.73
2022-10-06T14:11:13.133Z,1.00
2022-10-06T14:13:39.590Z,0.73
2022-10-06T14:16:06.052Z,0.50
2022-10-06T14:18:32.513Z,0.70
2022-10-06T14:20:58.947Z,0.65
2022-10-06T14:23:25.374Z,0.50
2022-10-06T14:25:51.805Z,0.60
2022-10-06T14:28:18.291Z,0.75
2022-10-06T14:30:44.809Z,0.98
2022-10-06T14:33:11.253Z,0.60
2022-10-06T14:35:37.735Z,1.17
2022-10-06T14:38:04.164Z,0.80
2022-10-06T14:40:30.589Z,1.05
2022-10-06T14:42:57.009Z,1.13
2022-10-06T14:45:23.469Z,0.80
2022-10-06T14:47:49.884Z,0.80
2022-10-06T14:50:16.301Z,0.43
2022-10-06T14:52:42.736Z,0.40
2022-10-06T14:55:09.174Z,0.40
2022-10-06T14:57:35.618Z,0.70
2022-10-06T15:00:02.424Z,0.73
2022-10-06T15:02:29.241Z,0.73
2022-10-06T15:04:55.722Z,0.43
2022-10-06T15:07:22.161Z,0.68
2022-10-06T15:09:48.583Z,0.80
2022-10-06T15:12:15.025Z,0.70
2022-10-06T15:14:41.464Z,0.70
2022-10-06T15:17:07.894Z,0.73
2022-10-06T15:19:34.366Z,0.40
2022-10-06T15:22:00.821Z,0.52
2022-10-06T15:24:27.263Z,0.63
2022-10-06T15:26:53.683Z,0.60
2022-10-06T15:29:20.120Z,0.70
2022-10-06T15:31:46.576Z,0.80
2022-10-06T15:34:13.020Z,0.98
2022-10-06T15:36:39.439Z,0.57
2022-10-06T15:39:05.880Z,0.30
2022-10-06T15:41:32.309Z,0.50
2022-10-06T15:43:58.758Z,0.63
2022-10-06T15:46:25.286Z,0.57
2022-10-06T15:48:51.774Z,0.70
2022-10-06T15:51:18.193Z,0.30
2022-10-06T15:53:44.633Z,0.50
2022-10-06T15:56:11.057Z,0.52
2022-10-06T15:58:37.492Z,0.55
2022-10-06T16:01:03.916Z,0.73
2022-10-06T16:03:30.355Z,0.50
2022-10-06T16:05:56.783Z,0.30
2022-10-06T16:08:23.225Z,0.40
2022-10-06T16:10:49.640Z,0.45
2022-10-06T16:13:16.073Z,0.22
2022-10-06T16:15:42.529Z,0.40
2022-10-06T16:18:09.018Z,0.50
2022-10-06T16:20:35.442Z,0.50
2022-10-06T16:23:01.865Z,0.55
2022-10-06T16:25:28.305Z,0.40
2022-10-06T16:27:54.733Z,0.70
2022-10-06T16:30:21.150Z,0.40
2022-10-06T16:32:47.567Z,0.45
2022-10-06T16:35:18.206Z,0.50
2022-10-06T16:37:44.949Z,0.20
2022-10-06T16:40:11.384Z,0.20
2022-10-06T16:42:39.052Z,0.52
2022-10-06T16:45:05.642Z,0.13
2022-10-06T16:47:32.086Z,0.28
2022-10-06T16:49:58.526Z,0.35
2022-10-06T16:52:24.962Z,0.40
2022-10-06T16:54:51.393Z,0.40
2022-10-06T16:57:17.808Z,0.30
2022-10-06T16:59:46.779Z,0.38
2022-10-06T17:02:14.065Z,0.38
2022-10-06T17:04:40.536Z,0.20
2022-10-06T17:07:06.953Z,0.47
2022-10-06T17:09:33.385Z,0.35
2022-10-06T17:11:59.803Z,0.13
2022-10-06T17:14:26.252Z,0.50
2022-10-06T17:16:52.688Z,0.40
2022-10-06T17:19:19.121Z,0.50
2022-10-06T17:21:48.021Z,0.30
2022-10-06T17:24:15.336Z,0.55
2022-10-06T17:26:41.769Z,0.22
2022-10-06T17:29:08.208Z,0.47
2022-10-06T17:31:34.687Z,0.38
2022-10-06T17:34:01.164Z,0.73
2022-10-06T17:36:27.596Z,0.30
2022-10-06T17:38:54.015Z,0.20
2022-10-06T17:41:20.455Z,0.55
2022-10-06T17:43:46.883Z,0.40
2022-10-06T17:46:13.425Z,0.40
2022-10-06T17:48:39.980Z,0.30
2022-10-06T17:51:06.446Z,0.50
2022-10-06T17:53:32.879Z,0.30
2022-10-06T17:55:59.300Z,0.40
2022-10-06T17:58:25.750Z,0.40
2022-10-06T18:00:52.239Z,0.30
2022-10-06T18:03:18.714Z,0.47
2022-10-06T18:05:45.130Z,0.70
2022-10-06T18:08:11.552Z,0.50
2022-10-06T18:10:37.965Z,0.65
2022-10-06T18:13:04.389Z,0.60
2022-10-06T18:15:30.801Z,0.50
2022-10-06T18:17:57.255Z,0.43
2022-10-06T18:20:23.693Z,0.77
2022-10-06T18:22:50.121Z,0.50
2022-10-06T18:25:16.531Z,0.50
2022-10-06T18:27:43.660Z,0.43
2022-10-06T18:30:10.398Z,0.40
2022-10-06T18:38:09.627Z,0.30
2022-10-06T18:40:36.048Z,0.40
2022-10-06T18:43:02.476Z,0.40
2022-10-06T18:45:28.955Z,0.35
2022-10-06T18:47:55.453Z,0.40
2022-10-06T18:50:21.872Z,0.50
2022-10-06T18:52:48.317Z,0.60
2022-10-06T18:55:14.735Z,0.30
2022-10-06T18:57:41.447Z,0.45
2022-10-06T19:00:07.972Z,0.30
2022-10-06T19:02:34.495Z,0.30
2022-10-06T19:05:00.995Z,0.28
2022-10-06T19:07:27.417Z,0.25
2022-10-06T19:09:53.857Z,0.35
2022-10-06T19:12:20.287Z,0.57
2022-10-06T19:14:46.721Z,0.28
2022-10-06T19:17:13.159Z,0.50
2022-10-06T19:19:39.581Z,0.38
2022-10-06T19:22:06.016Z,0.40
2022-10-06T19:24:32.456Z,0.55
2022-10-06T19:26:58.891Z,0.40
2022-10-06T19:29:25.312Z,0.30
2022-10-06T19:31:51.744Z,0.47
2022-10-06T19:34:18.191Z,0.60
2022-10-06T19:36:44.621Z,0.60
2022-10-06T19:39:11.072Z,0.40
2022-10-06T19:41:37.491Z,0.40
2022-10-06T19:44:03.934Z,0.40
2022-10-06T19:46:30.415Z,0.40
2022-10-06T19:48:56.952Z,0.65
2022-10-06T19:51:23.381Z,0.50
2022-10-06T19:53:49.812Z,0.57
2022-10-06T19:56:16.241Z,0.50
2022-10-06T19:58:42.679Z,0.40
2022-10-06T20:01:09.132Z,0.25
2022-10-06T20:03:35.576Z,0.50
2022-10-06T20:06:01.999Z,0.50
2022-10-06T20:08:28.435Z,0.40
2022-10-06T20:10:54.857Z,0.52
2022-10-06T20:13:21.301Z,0.30
2022-10-06T20:15:47.716Z,0.77
2022-10-06T20:18:14.150Z,0.90
2022-10-06T20:20:40.572Z,0.57
2022-10-06T20:23:06.981Z,0.50
2022-10-06T20:25:33.400Z,0.80
2022-10-06T20:27:59.907Z,0.77
2022-10-06T20:30:26.370Z,0.65
2022-10-06T20:32:52.792Z,0.95
2022-10-06T20:35:19.230Z,0.60
2022-10-06T20:37:46.186Z,0.60
2022-10-06T20:40:12.893Z,0.80
2022-10-06T20:42:39.310Z,0.60
2022-10-06T20:45:05.755Z,1.00
2022-10-06T20:47:32.169Z,0.57
2022-10-06T20:49:58.590Z,0.60
2022-10-06T20:52:25.006Z,1.23
2022-10-06T20:54:51.468Z,0.70
2022-10-06T20:57:17.896Z,0.95
2022-10-06T20:59:44.343Z,0.85
2022-10-06T21:02:10.820Z,0.68
2022-10-06T21:04:37.317Z,0.70
2022-10-06T21:07:03.831Z,0.60
2022-10-06T21:09:30.354Z,0.77
2022-10-06T21:11:56.838Z,1.17
2022-10-06T21:14:23.327Z,0.90
2022-10-06T21:16:49.808Z,1.20
2022-10-06T21:19:16.302Z,1.33
2022-10-06T21:21:42.788Z,1.25
2022-10-06T21:24:09.293Z,0.80
2022-10-06T21:26:35.776Z,1.00
2022-10-06T21:29:02.263Z,0.70
2022-10-06T21:31:28.812Z,0.80
2022-10-06T21:36:30.675Z,0.88
2022-10-06T21:38:57.152Z,0.70
2022-10-06T21:41:23.664Z,0.80
2022-10-06T21:43:50.155Z,0.98
2022-10-06T21:46:27.940Z,1.00
2022-10-06T21:48:55.429Z,1.10
2022-10-06T21:51:21.919Z,0.73
2022-10-06T21:53:48.402Z,0.88
2022-10-06T21:56:14.899Z,0.90
2022-10-06T21:58:41.384Z,1.00
2022-10-06T22:01:07.880Z,0.90
2022-10-06T22:03:34.361Z,0.80
2022-10-06T22:06:00.857Z,0.70
2022-10-06T22:08:27.341Z,0.98
2022-10-06T22:10:53.833Z,0.80
2022-10-06T22:13:20.312Z,0.88
2022-10-06T22:15:46.838Z,0.73
2022-10-06T22:18:13.348Z,0.80
2022-10-06T22:20:39.841Z,0.95
2022-10-06T22:23:06.432Z,1.45
2022-10-06T22:25:32.947Z,1.20
2022-10-06T22:27:59.475Z,1.48
2022-10-06T22:30:26.028Z,1.30
2022-10-06T22:32:52.511Z,1.10
2022-10-06T22:35:19.006Z,0.90
2022-10-06T22:37:46.128Z,1.00
2022-10-06T22:40:12.972Z,0.90
2022-10-06T22:42:39.455Z,1.10
2022-10-06T22:45:05.946Z,0.80
2022-10-06T22:47:32.440Z,0.82
2022-10-06T22:49:58.923Z,1.00
2022-10-06T22:52:25.416Z,0.75
2022-10-06T22:54:51.893Z,0.68
2022-10-06T22:57:18.412Z,0.63
2022-10-06T22:59:44.891Z,0.90
2022-10-06T23:02:11.387Z,0.90
2022-10-06T23:04:37.865Z,0.90
2022-10-06T23:07:04.359Z,0.70
2022-10-06T23:09:30.840Z,1.10
2022-10-06T23:11:57.333Z,1.00
2022-10-06T23:14:23.812Z,0.95
2022-10-06T23:16:50.326Z,1.10
2022-10-06T23:19:16.845Z,1.15
2022-10-06T23:21:43.434Z,0.70
2022-10-06T23:24:09.912Z,0.63
2022-10-06T23:26:36.412Z,0.52
2022-10-06T23:29:02.892Z,0.70
2022-10-06T23:31:29.555Z,0.80
2022-10-06T23:33:56.159Z,1.00
2022-10-06T23:36:22.657Z,0.70
2022-10-06T23:38:49.137Z,0.82
2022-10-06T23:41:15.632Z,0.60
2022-10-06T23:43:42.113Z,0.98
2022-10-06T23:46:08.671Z,0.80
2022-10-06T23:48:35.183Z,1.35
2022-10-06T23:51:01.681Z,1.05
2022-10-06T23:53:28.159Z,1.23
2022-10-06T23:55:54.653Z,0.90
2022-10-06T23:58:21.133Z,0.65
